Time;durP1;ratioP1;P1;durP2;ratioP2;P2;SDS_P1;SDS_P2;PMS_P1;PMS_P2;Temp;Humidity;BMP_temperature;BMP_pressure;BME280_temperature;BME280_humidity;BME280_pressure;Samples;Min_cycle;Max_cycle;Signal;HPM_P1;HPM_P2
2023/06/10 00:00:42;;;;;;;12.43;11.73;;;20.90;20.20;;;;;;4994612;28;20421;-51
2023/06/10 00:03:12;;;;;;;12.77;11.97;;;20.90;20.40;;;;;;4993943;28;20508;-53
2023/06/10 00:05:39;;;;;;;13.17;12.00;;;20.90;20.60;;;;;;4983066;28;20234;-49
2023/06/10 00:08:10;;;;;;;11.80;11.10;;;20.90;20.50;;;;;;4975202;28;20953;-47
2023/06/10 00:10:37;;;;;;;11.90;11.17;;;20.90;20.40;;;;;;4974960;28;20465;-50
2023/06/10 00:13:05;;;;;;;12.03;11.27;;;20.90;20.50;;;;;;4974875;28;20950;-47
2023/06/10 00:15:31;;;;;;;13.10;12.40;;;20.90;20.40;;;;;;4974808;28;20792;-53
2023/06/10 00:17:57;;;;;;;11.83;11.13;;;20.90;20.70;;;;;;4976156;28;20774;-50
2023/06/10 00:20:23;;;;;;;13.13;12.33;;;20.90;20.90;;;;;;4980163;28;20504;-52
2023/06/10 00:22:49;;;;;;;11.73;10.93;;;20.90;20.90;;;;;;4993711;28;20425;-54
2023/06/10 00:25:15;;;;;;;12.37;11.47;;;20.90;21.00;;;;;;4994315;28;20514;-50
2023/06/10 00:27:41;;;;;;;11.93;11.13;;;20.90;21.00;;;;;;4994170;28;20827;-51
2023/06/10 00:30:07;;;;;;;12.43;11.73;;;20.90;21.00;;;;;;4994034;28;20221;-54
2023/06/10 00:32:33;;;;;;;12.50;11.77;;;20.80;21.20;;;;;;4993339;28;20174;-52
2023/06/10 00:34:59;;;;;;;12.00;11.20;;;20.80;21.20;;;;;;4994024;28;20504;-53
2023/06/10 00:37:25;;;;;;;11.00;10.50;;;20.80;21.40;;;;;;4993870;28;20918;-53
2023/06/10 00:39:51;;;;;;;11.57;10.77;;;20.80;21.50;;;;;;4993825;28;20661;-53
2023/06/10 00:42:16;;;;;;;12.13;11.53;;;20.80;21.50;;;;;;4992935;28;20189;-53
2023/06/10 00:44:42;;;;;;;12.70;12.00;;;20.70;21.60;;;;;;4991988;28;20461;-54
2023/06/10 00:47:08;;;;;;;13.13;12.40;;;20.70;21.70;;;;;;4993708;28;20186;-53
2023/06/10 00:49:34;;;;;;;12.10;11.40;;;20.70;21.90;;;;;;4993490;28;20265;-52
2023/06/10 00:52:02;;;;;;;12.70;11.90;;;20.70;21.70;;;;;;4989829;28;20182;-53
2023/06/10 00:54:28;;;;;;;11.70;11.00;;;20.70;21.90;;;;;;5007817;28;20425;-54
2023/06/10 00:56:54;;;;;;;12.03;11.43;;;20.70;21.90;;;;;;4988365;28;20406;-60
2023/06/10 00:59:20;;;;;;;12.80;12.10;;;20.70;22.00;;;;;;4974125;28;20418;-58
2023/06/10 01:01:47;;;;;;;12.37;11.67;;;20.60;22.10;;;;;;4973427;28;20497;-60
2023/06/10 01:04:13;;;;;;;11.97;11.30;;;20.60;22.10;;;;;;4974002;28;20230;-59
2023/06/10 01:07:03;;;;;;;11.80;11.20;;;20.60;22.10;;;;;;4973804;28;20429;-60
2023/06/10 01:09:46;;;;;;;12.40;11.70;;;20.60;22.10;;;;;;4973863;28;20457;-60
2023/06/10 01:12:21;;;;;;;11.40;10.70;;;20.60;22.10;;;;;;4973537;28;20422;-60
2023/06/10 01:14:48;;;;;;;12.93;12.10;;;20.60;22.10;;;;;;4973860;28;20486;-60
2023/06/10 01:17:16;;;;;;;13.23;12.33;;;20.60;22.40;;;;;;4973973;28;20422;-59
2023/06/10 01:19:43;;;;;;;12.87;12.17;;;20.60;22.40;;;;;;4973828;28;20426;-60
2023/06/10 01:22:10;;;;;;;12.90;12.20;;;20.60;22.50;;;;;;4972424;28;21039;-59
2023/06/10 01:24:37;;;;;;;13.60;12.70;;;20.50;22.60;;;;;;4973492;28;20465;-60
2023/06/10 01:27:10;;;;;;;12.70;12.00;;;20.50;22.50;;;;;;4974762;28;20455;-60
2023/06/10 01:29:52;;;;;;;12.60;11.90;;;20.50;22.50;;;;;;4991632;28;20515;-60
2023/06/10 01:32:27;;;;;;;13.50;12.30;;;20.50;22.60;;;;;;4997930;28;20431;-60
2023/06/10 01:34:55;;;;;;;14.87;13.97;;;20.40;22.80;;;;;;4979012;28;20524;-60
2023/06/10 01:37:24;;;;;;;12.87;12.07;;;20.40;23.10;;;;;;4973547;28;20418;-60
2023/06/10 01:39:51;;;;;;;13.50;12.70;;;20.40;23.30;;;;;;4972715;28;20422;-59
2023/06/10 01:42:17;;;;;;;13.67;12.87;;;20.40;23.40;;;;;;4972566;28;20509;-53
2023/06/10 01:44:43;;;;;;;12.87;12.07;;;20.30;23.50;;;;;;4973055;28;20975;-53
2023/06/10 01:47:09;;;;;;;13.27;12.47;;;20.20;24.30;;;;;;4973242;28;20413;-50
2023/06/10 01:49:34;;;;;;;14.03;13.23;;;20.10;24.10;;;;;;4972547;28;20543;-51
2023/06/10 01:52:00;;;;;;;13.07;12.20;;;20.00;24.10;;;;;;4972428;28;20270;-50
2023/06/10 01:54:26;;;;;;;12.90;12.20;;;19.90;24.40;;;;;;4972367;28;20225;-52
2023/06/10 01:56:52;;;;;;;13.20;12.50;;;20.00;24.20;;;;;;4973051;28;20343;-53
2023/06/10 01:59:17;;;;;;;13.50;12.70;;;20.10;24.20;;;;;;4973016;28;20542;-53
2023/06/10 02:01:43;;;;;;;13.90;13.00;;;20.10;23.90;;;;;;4972355;28;20186;-54
2023/06/10 02:04:08;;;;;;;13.53;12.80;;;20.10;23.70;;;;;;4973009;28;20703;-54
2023/06/10 02:06:35;;;;;;;12.60;11.90;;;20.20;23.80;;;;;;4972832;28;20269;-61
2023/06/10 02:09:01;;;;;;;13.67;12.70;;;20.20;23.50;;;;;;4970877;28;20673;-60
2023/06/10 02:11:26;;;;;;;12.60;11.87;;;20.20;23.40;;;;;;4971548;28;20418;-63
2023/06/10 02:13:52;;;;;;;12.57;11.87;;;20.10;23.20;;;;;;4955923;28;20186;-60
2023/06/10 02:16:18;;;;;;;13.37;12.57;;;20.10;23.20;;;;;;4972261;28;20175;-60
2023/06/10 02:18:44;;;;;;;13.10;12.40;;;20.20;23.30;;;;;;4972679;28;20183;-60
2023/06/10 02:21:10;;;;;;;12.20;11.50;;;20.20;23.50;;;;;;4971502;28;20906;-60
2023/06/10 02:23:36;;;;;;;12.10;11.50;;;20.10;23.20;;;;;;4972546;28;20287;-60
2023/06/10 02:26:02;;;;;;;12.53;11.67;;;20.20;23.50;;;;;;4972532;28;20414;-60
2023/06/10 02:28:28;;;;;;;11.30;10.70;;;20.10;23.20;;;;;;4973169;28;20366;-60
2023/06/10 02:30:53;;;;;;;11.33;10.63;;;20.20;23.40;;;;;;4998319;28;20425;-54
2023/06/10 02:33:19;;;;;;;12.27;11.57;;;20.10;23.20;;;;;;4981871;28;20407;-50
2023/06/10 02:35:45;;;;;;;11.47;10.77;;;20.10;23.20;;;;;;4991576;28;20177;-52
2023/06/10 02:38:11;;;;;;;10.73;10.23;;;20.10;23.00;;;;;;4980487;28;20430;-48
2023/06/10 02:40:37;;;;;;;10.93;10.33;;;20.10;22.90;;;;;;4991099;28;20503;-60
2023/06/10 02:43:02;;;;;;;11.03;10.40;;;20.10;22.70;;;;;;4991007;28;20373;-60
2023/06/10 02:45:28;;;;;;;11.87;11.17;;;20.10;23.00;;;;;;4976509;28;20213;-48
2023/06/10 02:47:53;;;;;;;10.80;10.10;;;20.10;22.90;;;;;;4986325;28;20206;-49
2023/06/10 02:50:19;;;;;;;11.63;11.03;;;20.10;22.80;;;;;;4971538;28;20178;-52
2023/06/10 02:52:45;;;;;;;10.33;9.83;;;20.10;23.40;;;;;;4971625;28;20265;-50
2023/06/10 02:55:11;;;;;;;11.90;11.10;;;20.10;22.90;;;;;;4973605;28;21038;-51
2023/06/10 02:57:36;;;;;;;10.87;10.27;;;20.00;22.80;;;;;;4992240;28;20465;-51
2023/06/10 03:00:07;;;;;;;10.33;9.83;;;20.00;22.80;;;;;;4991517;28;20182;-51
2023/06/10 03:02:36;;;;;;;11.40;10.57;;;20.00;22.80;;;;;;4990221;28;20181;-49
2023/06/10 03:05:02;;;;;;;11.60;10.87;;;20.00;23.00;;;;;;4991419;28;20457;-52
2023/06/10 03:07:28;;;;;;;11.63;11.00;;;19.90;22.80;;;;;;4991303;28;20405;-60
2023/06/10 03:09:54;;;;;;;12.40;11.70;;;19.90;23.00;;;;;;4990157;28;20940;-60
2023/06/10 03:12:19;;;;;;;12.03;11.40;;;19.90;23.00;;;;;;4990809;28;20229;-59
2023/06/10 03:14:45;;;;;;;11.17;10.57;;;19.80;23.30;;;;;;4991329;28;20177;-59
2023/06/10 03:17:11;;;;;;;12.93;12.13;;;19.80;23.10;;;;;;4991280;28;20273;-59
2023/06/10 03:19:37;;;;;;;11.70;11.07;;;19.80;23.30;;;;;;4990911;28;20178;-59
2023/06/10 03:22:16;;;;;;;12.10;11.50;;;19.80;23.40;;;;;;4990731;28;20181;-59
2023/06/10 03:24:43;;;;;;;12.83;11.67;;;19.80;23.50;;;;;;4991289;28;20500;-59
2023/06/10 03:27:10;;;;;;;11.53;10.93;;;19.80;23.40;;;;;;4990492;28;20418;-59
2023/06/10 03:29:39;;;;;;;12.47;11.67;;;19.70;23.30;;;;;;4989040;28;20433;-59
2023/06/10 03:32:06;;;;;;;11.63;11.13;;;19.70;23.50;;;;;;4998040;28;20427;-52
2023/06/10 03:34:31;;;;;;;12.27;11.47;;;19.70;23.80;;;;;;4983965;28;20430;-52
2023/06/10 03:36:58;;;;;;;12.07;11.37;;;19.60;23.90;;;;;;4974301;28;20789;-48
2023/06/10 03:39:23;;;;;;;11.67;11.07;;;19.60;24.10;;;;;;4974937;28;20179;-53
2023/06/10 03:41:50;;;;;;;12.07;11.37;;;19.60;24.00;;;;;;4974206;28;20967;-49
2023/06/10 03:44:15;;;;;;;11.80;11.20;;;19.60;23.80;;;;;;4975409;28;20206;-58
2023/06/10 03:46:42;;;;;;;12.00;11.30;;;19.60;23.90;;;;;;4983655;28;20944;-60
2023/06/10 03:49:09;;;;;;;11.33;10.77;;;19.60;24.10;;;;;;4993687;28;20265;-58
2023/06/10 03:51:35;;;;;;;12.47;11.77;;;19.60;24.10;;;;;;4994097;28;20948;-59
2023/06/10 03:54:01;;;;;;;12.30;11.70;;;19.60;24.20;;;;;;4995432;28;20414;-59
2023/06/10 03:56:28;;;;;;;12.27;11.10;;;19.60;24.70;;;;;;4994726;28;20424;-59
2023/06/10 03:58:54;;;;;;;11.97;11.17;;;19.60;24.20;;;;;;4994687;28;20181;-58
2023/06/10 04:01:20;;;;;;;11.83;11.20;;;19.60;24.10;;;;;;4993112;28;20989;-59
2023/06/10 04:03:48;;;;;;;11.33;10.73;;;19.50;24.50;;;;;;4999841;28;20937;-59
2023/06/10 04:06:14;;;;;;;11.57;10.97;;;19.60;24.10;;;;;;4980443;28;20426;-59
2023/06/10 04:08:41;;;;;;;11.87;11.27;;;19.60;24.40;;;;;;4991285;28;20507;-52
2023/06/10 04:11:06;;;;;;;11.53;10.97;;;19.60;24.40;;;;;;4994067;28;21018;-52
2023/06/10 04:13:32;;;;;;;12.13;11.40;;;19.50;24.30;;;;;;4993485;28;20511;-55
2023/06/10 04:15:58;;;;;;;12.80;11.73;;;19.50;24.20;;;;;;4994440;28;20178;-52
2023/06/10 04:18:23;;;;;;;10.77;10.10;;;19.50;24.30;;;;;;4995515;28;20545;-53
2023/06/10 04:20:49;;;;;;;12.77;12.07;;;19.50;24.40;;;;;;4993551;28;20719;-61
2023/06/10 04:23:15;;;;;;;13.07;12.20;;;19.40;24.60;;;;;;4985863;28;20741;-60
2023/06/10 04:25:40;;;;;;;12.33;11.43;;;19.40;24.70;;;;;;4989152;28;20250;-60
2023/06/10 04:28:06;;;;;;;11.50;10.83;;;19.40;24.50;;;;;;4985668;28;20197;-54
2023/06/10 04:30:32;;;;;;;11.40;10.80;;;19.40;24.50;;;;;;4971974;28;20174;-50
2023/06/10 04:32:58;;;;;;;11.73;11.03;;;19.40;24.90;;;;;;4970474;28;20511;-52
2023/06/10 04:35:26;;;;;;;11.57;10.97;;;19.40;25.00;;;;;;4970831;28;20179;-49
2023/06/10 04:37:52;;;;;;;11.70;11.10;;;19.50;24.90;;;;;;4991132;28;20914;-52
2023/06/10 04:40:18;;;;;;;11.70;10.90;;;19.50;25.00;;;;;;4991001;28;20460;-51
2023/06/10 04:42:43;;;;;;;12.20;11.50;;;19.60;25.10;;;;;;4990685;28;20200;-62
2023/06/10 04:45:09;;;;;;;12.30;11.50;;;19.60;25.00;;;;;;4991829;28;20620;-60
2023/06/10 04:47:35;;;;;;;12.47;11.87;;;19.60;25.20;;;;;;4991279;28;20184;-60
2023/06/10 04:50:01;;;;;;;13.10;12.30;;;19.70;25.30;;;;;;4991330;28;20212;-60
2023/06/10 04:52:27;;;;;;;12.80;12.10;;;19.70;25.10;;;;;;4990488;28;20170;-52
2023/06/10 04:54:53;;;;;;;12.80;12.10;;;19.70;25.20;;;;;;4992469;28;20483;-52
2023/06/10 04:57:20;;;;;;;11.57;10.93;;;19.70;25.20;;;;;;4993659;28;20178;-54
2023/06/10 04:59:46;;;;;;;12.20;11.53;;;19.70;25.40;;;;;;4993515;28;20425;-55
2023/06/10 05:02:11;;;;;;;12.87;12.17;;;19.70;25.40;;;;;;4992970;28;20831;-53
2023/06/10 05:04:37;;;;;;;12.40;11.70;;;19.70;25.70;;;;;;4992072;28;20461;-53
2023/06/10 05:07:03;;;;;;;11.60;11.00;;;19.80;25.70;;;;;;4992861;28;20178;-54
2023/06/10 05:09:30;;;;;;;12.20;11.40;;;19.80;25.50;;;;;;4991926;28;20206;-51
2023/06/10 05:11:55;;;;;;;11.80;11.10;;;19.80;25.50;;;;;;4992903;28;20421;-54
2023/06/10 05:14:21;;;;;;;12.33;11.53;;;19.80;25.40;;;;;;4987930;28;20962;-53
2023/06/10 05:16:48;;;;;;;11.30;10.60;;;19.80;25.10;;;;;;4987446;28;20326;-60
2023/06/10 05:19:13;;;;;;;11.90;11.30;;;19.80;25.50;;;;;;4971635;28;20673;-60
2023/06/10 05:21:39;;;;;;;10.57;9.97;;;19.80;25.70;;;;;;4991906;28;20429;-60
2023/06/10 05:24:06;;;;;;;10.70;10.07;;;19.80;25.00;;;;;;4992132;28;20206;-55
2023/06/10 05:26:32;;;;;;;11.33;10.63;;;19.90;25.00;;;;;;4986761;28;20274;-50
2023/06/10 05:28:59;;;;;;;11.00;10.30;;;19.90;25.20;;;;;;4986139;28;20847;-54
2023/06/10 05:31:24;;;;;;;10.90;10.30;;;19.90;25.40;;;;;;4991526;28;20417;-59
2023/06/10 05:33:50;;;;;;;11.40;10.80;;;19.90;25.30;;;;;;4992148;28;20483;-59
2023/06/10 05:36:16;;;;;;;11.60;11.00;;;19.90;25.40;;;;;;4989715;28;20425;-60
2023/06/10 05:38:42;;;;;;;11.10;10.40;;;19.90;25.40;;;;;;4986530;28;20233;-59
2023/06/10 05:41:07;;;;;;;11.07;10.40;;;20.00;25.70;;;;;;4993529;28;20190;-60
2023/06/10 05:43:33;;;;;;;11.80;11.20;;;20.00;25.50;;;;;;4981631;28;20270;-51
2023/06/10 05:45:59;;;;;;;11.50;10.90;;;20.00;25.30;;;;;;5005937;28;20236;-54
2023/06/10 05:48:24;;;;;;;12.07;11.27;;;20.00;25.50;;;;;;4991759;28;20651;-52
2023/06/10 05:50:50;;;;;;;11.70;11.00;;;20.10;25.30;;;;;;4985239;28;20175;-53
2023/06/10 05:53:16;;;;;;;10.90;10.20;;;20.10;25.50;;;;;;4990605;28;20224;-52
2023/06/10 05:55:43;;;;;;;10.20;9.70;;;20.10;25.30;;;;;;4991774;28;20178;-53
2023/06/10 05:58:09;;;;;;;10.30;9.70;;;20.20;25.20;;;;;;4992566;28;20174;-59
2023/06/10 06:00:35;;;;;;;10.50;9.90;;;20.10;25.60;;;;;;4990700;28;20475;-59
2023/06/10 06:03:00;;;;;;;11.40;10.70;;;20.20;25.60;;;;;;5006267;28;20178;-58
2023/06/10 06:05:26;;;;;;;10.20;9.70;;;20.20;26.00;;;;;;4998605;28;20202;-60
2023/06/10 06:07:52;;;;;;;10.27;9.77;;;20.20;25.10;;;;;;4992566;28;20545;-59
2023/06/10 06:10:18;;;;;;;11.10;10.50;;;20.30;25.40;;;;;;4992013;28;20646;-59
2023/06/10 06:12:44;;;;;;;10.47;9.90;;;20.30;25.60;;;;;;4980320;28;20186;-60
2023/06/10 06:15:11;;;;;;;11.43;10.83;;;20.30;25.40;;;;;;5004014;28;20488;-61
2023/06/10 06:17:37;;;;;;;11.13;10.30;;;20.40;25.40;;;;;;4988111;28;20434;-59
2023/06/10 06:20:03;;;;;;;11.00;10.40;;;20.40;25.30;;;;;;4985591;28;20429;-59
2023/06/10 06:22:29;;;;;;;11.90;11.20;;;20.40;25.40;;;;;;4982375;28;20244;-53
2023/06/10 06:24:55;;;;;;;10.80;10.20;;;20.40;25.60;;;;;;4990345;28;20461;-54
2023/06/10 06:27:21;;;;;;;10.70;10.20;;;20.40;25.50;;;;;;4990167;28;20447;-53
2023/06/10 06:29:47;;;;;;;10.93;10.33;;;20.50;25.80;;;;;;4990274;28;20268;-53
2023/06/10 06:32:12;;;;;;;10.77;9.90;;;20.50;25.90;;;;;;4989773;28;20663;-54
2023/06/10 06:34:38;;;;;;;11.07;10.30;;;20.50;25.60;;;;;;4990322;28;20480;-49
2023/06/10 06:37:04;;;;;;;11.40;10.57;;;20.50;25.30;;;;;;4990594;28;20209;-53
2023/06/10 06:39:30;;;;;;;11.77;11.10;;;20.60;25.30;;;;;;4991792;28;20704;-53
2023/06/10 06:41:55;;;;;;;11.07;10.30;;;20.70;24.50;;;;;;4991236;28;20438;-54
2023/06/10 06:44:21;;;;;;;11.17;10.53;;;20.70;24.50;;;;;;4990909;28;20257;-55
2023/06/10 06:46:46;;;;;;;10.77;10.17;;;20.70;24.70;;;;;;4991670;28;20170;-52
2023/06/10 06:49:12;;;;;;;11.30;10.60;;;20.80;24.80;;;;;;4991731;28;20535;-60
2023/06/10 06:51:37;;;;;;;11.70;11.00;;;20.90;24.30;;;;;;4991006;28;20177;-60
2023/06/10 06:54:05;;;;;;;10.97;10.37;;;20.90;24.10;;;;;;4993091;28;20177;-60
2023/06/10 06:56:31;;;;;;;12.27;11.57;;;21.00;24.20;;;;;;4991467;28;20554;-60
2023/06/10 06:58:56;;;;;;;11.70;11.10;;;21.00;24.20;;;;;;4991536;28;20471;-59
2023/06/10 07:01:22;;;;;;;11.33;10.63;;;21.00;23.90;;;;;;4991102;28;20554;-59
2023/06/10 07:03:48;;;;;;;10.50;9.90;;;21.10;23.90;;;;;;4991318;28;20185;-59
2023/06/10 07:06:14;;;;;;;11.20;10.60;;;21.20;24.10;;;;;;4992667;28;20189;-59
2023/06/10 07:08:40;;;;;;;11.43;10.83;;;21.20;23.90;;;;;;4991466;28;20191;-60
2023/06/10 07:11:05;;;;;;;11.17;10.43;;;21.20;24.30;;;;;;4991212;28;20444;-60
2023/06/10 07:13:31;;;;;;;10.40;9.80;;;21.20;24.40;;;;;;4991182;28;20662;-60
2023/06/10 07:15:56;;;;;;;11.07;10.27;;;21.20;24.60;;;;;;4991656;28;20181;-60
2023/06/10 07:18:22;;;;;;;12.10;11.40;;;21.40;23.70;;;;;;4992853;28;20220;-60
2023/06/10 07:20:48;;;;;;;10.33;9.83;;;21.50;23.70;;;;;;4991404;28;20189;-60
2023/06/10 07:23:13;;;;;;;11.17;10.50;;;21.70;23.50;;;;;;4990937;28;20188;-60
2023/06/10 07:25:41;;;;;;;10.40;9.80;;;21.70;22.80;;;;;;4991285;28;20232;-60
2023/06/10 07:28:06;;;;;;;11.20;10.50;;;21.70;23.30;;;;;;4991326;28;20174;-60
2023/06/10 07:30:32;;;;;;;11.30;10.60;;;21.70;22.80;;;;;;4987723;28;20992;-56
2023/06/10 07:32:58;;;;;;;10.53;10.00;;;21.70;22.80;;;;;;4984920;28;20178;-54
2023/06/10 07:35:23;;;;;;;12.00;11.20;;;21.80;22.90;;;;;;4985554;28;20207;-55
2023/06/10 07:37:49;;;;;;;10.50;9.80;;;21.80;22.90;;;;;;4991334;28;20216;-58
2023/06/10 07:40:15;;;;;;;11.30;10.70;;;21.80;22.90;;;;;;4980321;28;20190;-53
2023/06/10 07:42:41;;;;;;;9.50;8.80;;;21.80;22.90;;;;;;4988267;28;20317;-54
2023/06/10 07:45:07;;;;;;;10.70;10.10;;;21.80;23.20;;;;;;4988749;28;20253;-53
2023/06/10 07:47:34;;;;;;;10.93;10.10;;;21.80;23.40;;;;;;4990202;28;20422;-54
2023/06/10 07:50:00;;;;;;;10.47;9.87;;;21.80;22.90;;;;;;4991282;28;20421;-54
2023/06/10 07:52:25;;;;;;;10.53;9.93;;;21.90;23.00;;;;;;4990634;28;20428;-49
2023/06/10 07:54:51;;;;;;;10.40;9.80;;;22.20;22.10;;;;;;4991367;28;20442;-54
2023/06/10 07:57:18;;;;;;;10.67;10.00;;;22.20;22.00;;;;;;4991319;28;20182;-59
2023/06/10 07:59:44;;;;;;;11.87;11.17;;;22.20;22.30;;;;;;4991134;28;20751;-60
2023/06/10 08:02:10;;;;;;;9.73;9.13;;;22.40;22.40;;;;;;4985805;28;20442;-60
2023/06/10 08:04:36;;;;;;;11.47;10.57;;;22.40;22.10;;;;;;4990942;28;20260;-59
2023/06/10 08:07:02;;;;;;;11.00;10.33;;;22.50;22.00;;;;;;4991530;28;20606;-60
2023/06/10 08:09:28;;;;;;;9.87;9.27;;;22.50;21.80;;;;;;4991074;28;20649;-59
2023/06/10 08:11:53;;;;;;;11.53;10.73;;;22.70;21.60;;;;;;4990911;28;20421;-60
2023/06/10 08:14:19;;;;;;;10.00;9.40;;;22.60;21.10;;;;;;4991380;28;20194;-60
2023/06/10 08:16:45;;;;;;;11.03;10.33;;;22.60;21.80;;;;;;4986568;28;20178;-59
2023/06/10 08:19:11;;;;;;;9.40;8.90;;;22.70;21.40;;;;;;4994869;28;20178;-59
2023/06/10 08:21:39;;;;;;;9.80;9.20;;;22.80;21.20;;;;;;4994222;28;20579;-60
2023/06/10 08:24:09;;;;;;;13.83;12.97;;;22.80;21.00;;;;;;4994860;28;20539;-59
2023/06/10 08:26:34;;;;;;;10.83;10.20;;;22.80;21.50;;;;;;4994615;28;20417;-60
2023/06/10 08:29:00;;;;;;;11.53;10.70;;;22.90;20.50;;;;;;4994480;28;20824;-60
2023/06/10 08:31:26;;;;;;;10.70;10.10;;;22.90;20.60;;;;;;4984904;28;20175;-59
2023/06/10 08:33:52;;;;;;;12.80;10.00;;;23.00;20.40;;;;;;4975013;28;20544;-59
2023/06/10 08:36:17;;;;;;;11.33;10.53;;;23.10;20.30;;;;;;4974975;28;20252;-54
2023/06/10 08:38:43;;;;;;;10.30;9.70;;;23.20;20.10;;;;;;4976162;28;20181;-53
2023/06/10 08:41:11;;;;;;;10.33;9.70;;;23.30;19.50;;;;;;4974215;28;20190;-53
2023/06/10 08:43:43;;;;;;;10.10;9.53;;;23.30;20.00;;;;;;4982898;28;20186;-54
2023/06/10 08:46:10;;;;;;;10.60;10.00;;;23.70;19.00;;;;;;4992017;28;20552;-52
2023/06/10 08:48:41;;;;;;;10.60;9.90;;;23.80;18.30;;;;;;4993081;28;20444;-52
2023/06/10 08:51:10;;;;;;;11.00;10.40;;;23.80;18.20;;;;;;4993461;28;20417;-55
2023/06/10 08:53:38;;;;;;;11.00;10.20;;;24.10;17.80;;;;;;5008727;28;20757;-54
2023/06/10 08:56:05;;;;;;;10.63;10.03;;;24.20;17.70;;;;;;4987610;28;20479;-53
2023/06/10 08:58:41;;;;;;;10.73;9.80;;;24.20;17.50;;;;;;4993198;28;20843;-55
2023/06/10 09:01:10;;;;;;;10.83;10.20;;;24.10;17.70;;;;;;4992879;28;20432;-54
2023/06/10 09:03:40;;;;;;;10.13;9.33;;;24.10;17.10;;;;;;4988627;28;20613;-54
2023/06/10 09:06:06;;;;;;;9.70;9.00;;;24.20;17.00;;;;;;5005083;28;20464;-57
2023/06/10 09:08:34;;;;;;;9.93;9.10;;;24.30;17.40;;;;;;4992790;28;20409;-55
2023/06/10 09:11:00;;;;;;;9.30;8.70;;;24.50;16.30;;;;;;4992865;28;20842;-59
2023/06/10 09:13:26;;;;;;;9.40;8.77;;;24.70;16.30;;;;;;4992189;28;20444;-59
2023/06/10 09:15:52;;;;;;;9.27;8.67;;;24.70;16.30;;;;;;4992912;28;20464;-59
2023/06/10 09:18:17;;;;;;;9.40;8.80;;;24.80;16.10;;;;;;4991659;28;20189;-59
2023/06/10 09:20:44;;;;;;;9.20;8.70;;;24.90;15.80;;;;;;4992034;28;20185;-59
2023/06/10 09:23:09;;;;;;;9.77;9.17;;;25.00;15.40;;;;;;4988466;28;20179;-60
2023/06/10 09:25:37;;;;;;;9.77;9.13;;;25.00;15.20;;;;;;5007421;28;20457;-59
2023/06/10 09:28:03;;;;;;;10.13;9.53;;;24.90;15.90;;;;;;4991977;28;20188;-59
2023/06/10 09:30:31;;;;;;;13.50;10.20;;;25.00;16.20;;;;;;4992491;28;20472;-61
2023/06/10 09:32:58;;;;;;;10.47;9.77;;;25.10;15.40;;;;;;5006787;28;20803;-59
2023/06/10 09:35:25;;;;;;;11.67;10.97;;;25.20;15.60;;;;;;5012099;28;20835;-60
2023/06/10 09:37:56;;;;;;;10.63;9.83;;;25.30;15.10;;;;;;4994081;28;20429;-58
2023/06/10 09:40:22;;;;;;;10.80;10.20;;;25.40;14.80;;;;;;4992443;28;20495;-59
2023/06/10 09:42:57;;;;;;;10.07;9.43;;;25.40;14.60;;;;;;4993663;28;20813;-59
2023/06/10 09:45:23;;;;;;;9.43;8.93;;;25.50;14.90;;;;;;4989792;28;20466;-52
2023/06/10 09:47:53;;;;;;;10.57;9.87;;;25.40;14.80;;;;;;4999133;28;20984;-59
2023/06/10 09:50:19;;;;;;;10.00;9.43;;;25.50;14.70;;;;;;4988628;28;20472;-59
2023/06/10 09:52:46;;;;;;;9.87;9.33;;;25.90;14.10;;;;;;4984150;28;20480;-57
2023/06/10 09:55:12;;;;;;;10.00;9.40;;;26.20;13.40;;;;;;4984167;28;20432;-58
2023/06/10 09:57:39;;;;;;;10.33;9.60;;;26.30;13.00;;;;;;4980982;28;20413;-58
2023/06/10 10:00:09;;;;;;;10.30;9.70;;;26.50;12.80;;;;;;4991289;28;20646;-58
2023/06/10 10:02:49;;;;;;;9.93;9.33;;;26.50;13.00;;;;;;4991123;28;20435;-58
2023/06/10 10:05:19;;;;;;;10.07;9.57;;;26.50;12.80;;;;;;4993197;28;20488;-57
2023/06/10 10:07:46;;;;;;;9.20;8.70;;;26.50;12.80;;;;;;4991955;28;20467;-57
2023/06/10 10:10:13;;;;;;;10.00;9.40;;;26.60;12.40;;;;;;4991998;28;20413;-59
2023/06/10 10:12:40;;;;;;;9.67;9.17;;;26.60;12.20;;;;;;4991357;28;20413;-57
2023/06/10 10:15:08;;;;;;;10.23;9.73;;;26.60;12.40;;;;;;4992028;28;20812;-59
2023/06/10 10:17:39;;;;;;;10.53;9.93;;;26.70;12.00;;;;;;4991656;28;20424;-59
2023/06/10 10:20:06;;;;;;;11.23;10.30;;;26.80;12.50;;;;;;4991835;28;20433;-59
2023/06/10 10:22:39;;;;;;;10.30;9.70;;;26.90;11.60;;;;;;4991415;28;20425;-58
2023/06/10 10:25:16;;;;;;;9.47;8.97;;;26.90;12.00;;;;;;4991663;28;20468;-58
2023/06/10 10:27:50;;;;;;;10.57;9.97;;;27.00;11.60;;;;;;4991684;28;20428;-59
2023/06/10 10:30:19;;;;;;;10.80;10.20;;;27.20;11.10;;;;;;4991607;28;20460;-58
2023/06/10 10:32:59;;;;;;;10.93;10.23;;;27.20;10.70;;;;;;4991166;28;20409;-59
2023/06/10 10:35:25;;;;;;;10.67;10.07;;;27.30;10.70;;;;;;4991348;28;20996;-58
2023/06/10 10:37:53;;;;;;;9.00;8.50;;;27.30;10.90;;;;;;4998082;28;20424;-58
2023/06/10 10:40:20;;;;;;;10.57;9.87;;;27.40;11.60;;;;;;5006498;28;20453;-58
2023/06/10 10:42:48;;;;;;;10.43;9.83;;;27.40;10.70;;;;;;5005865;28;20424;-59
2023/06/10 10:45:14;;;;;;;9.50;9.00;;;27.50;10.50;;;;;;5007808;28;20514;-58
2023/06/10 10:47:42;;;;;;;9.90;9.30;;;27.50;10.10;;;;;;5004286;28;20841;-58
2023/06/10 10:50:19;;;;;;;17.87;16.23;;;27.50;10.00;;;;;;4987477;28;20650;-58
2023/06/10 10:52:55;;;;;;;11.10;10.10;;;27.60;10.10;;;;;;4990898;28;20415;-59
2023/06/10 10:55:22;;;;;;;10.53;10.03;;;27.70;10.30;;;;;;4991078;28;20428;-58
2023/06/10 10:57:59;;;;;;;10.57;9.97;;;27.60;9.60;;;;;;4991320;28;20564;-59
2023/06/10 11:00:27;;;;;;;11.20;10.37;;;27.70;9.80;;;;;;4991026;28;20417;-58
2023/06/10 11:02:53;;;;;;;11.57;10.87;;;27.60;10.70;;;;;;4990260;28;20420;-59
2023/06/10 11:05:37;;;;;;;10.77;10.07;;;27.60;10.80;;;;;;4991035;28;20551;-58
2023/06/10 11:08:03;;;;;;;9.70;9.23;;;27.40;10.50;;;;;;4991264;28;20417;-58
2023/06/10 11:10:34;;;;;;;10.20;9.60;;;27.20;11.00;;;;;;4990910;28;20405;-58
2023/06/10 11:13:05;;;;;;;10.00;9.50;;;27.00;11.50;;;;;;4979297;28;20430;-59
2023/06/10 11:15:30;;;;;;;10.77;10.13;;;26.80;11.60;;;;;;4971042;28;20439;-53
2023/06/10 11:18:25;;;;;;;10.50;9.90;;;26.80;12.20;;;;;;4971780;28;20418;-57
2023/06/10 11:21:02;;;;;;;10.07;9.30;;;26.70;12.30;;;;;;4992664;28;20233;-50
2023/06/10 11:23:27;;;;;;;8.97;8.53;;;26.80;11.30;;;;;;4988046;28;20460;-56
2023/06/10 11:26:38;;;;;;;8.97;8.53;;;26.70;11.60;;;;;;4991361;28;20460;-57
2023/06/10 11:29:05;;;;;;;10.97;10.20;;;26.60;11.90;;;;;;4987527;28;20662;-57
2023/06/10 11:31:33;;;;;;;10.50;9.90;;;26.80;11.70;;;;;;4990258;28;20432;-54
2023/06/10 11:34:00;;;;;;;10.80;10.00;;;26.70;11.80;;;;;;4990846;28;20784;-58
2023/06/10 11:36:28;;;;;;;10.20;9.60;;;26.90;11.90;;;;;;4990721;28;20421;-58
2023/06/10 11:38:56;;;;;;;9.90;9.40;;;26.90;11.30;;;;;;4990901;28;20421;-57
2023/06/10 11:41:25;;;;;;;10.63;10.00;;;27.00;10.70;;;;;;4990296;28;20543;-59
2023/06/10 11:43:53;;;;;;;11.10;10.50;;;27.00;10.50;;;;;;4990828;28;20512;-57
2023/06/10 11:46:19;;;;;;;10.23;9.63;;;26.90;11.10;;;;;;4990687;28;20840;-58
2023/06/10 11:48:56;;;;;;;10.93;10.33;;;26.90;10.90;;;;;;4990659;28;20436;-58
2023/06/10 11:51:26;;;;;;;11.00;10.40;;;26.80;11.10;;;;;;4992241;28;20186;-59
2023/06/10 11:53:53;;;;;;;10.17;9.50;;;26.90;10.80;;;;;;4994320;28;20425;-59
2023/06/10 11:56:23;;;;;;;9.83;9.23;;;26.80;11.20;;;;;;4994294;28;20417;-59
2023/06/10 11:58:54;;;;;;;10.47;9.70;;;26.70;11.70;;;;;;4994322;28;20804;-58
2023/06/10 12:01:24;;;;;;;8.47;8.07;;;26.70;11.00;;;;;;4993471;28;20437;-59
2023/06/10 12:03:58;;;;;;;9.90;9.40;;;27.00;10.50;;;;;;4994373;28;20437;-59
2023/06/10 12:06:23;;;;;;;8.97;8.47;;;27.20;10.60;;;;;;4994116;28;20421;-59
2023/06/10 12:08:49;;;;;;;8.20;7.80;;;27.10;10.40;;;;;;4994327;28;20472;-54
2023/06/10 12:11:15;;;;;;;9.87;9.27;;;26.90;10.60;;;;;;4993943;28;20181;-54
2023/06/10 12:13:49;;;;;;;10.80;10.10;;;26.90;10.70;;;;;;4993962;28;20193;-58
2023/06/10 12:16:16;;;;;;;9.80;9.30;;;26.80;10.90;;;;;;4993771;28;20182;-58
2023/06/10 12:18:44;;;;;;;8.70;8.20;;;26.70;10.70;;;;;;4993878;28;20429;-57
2023/06/10 12:21:17;;;;;;;9.87;9.17;;;26.60;11.10;;;;;;4993807;28;20413;-57
2023/06/10 12:24:06;;;;;;;10.47;9.67;;;26.60;10.70;;;;;;4993888;28;20869;-57
2023/06/10 12:26:40;;;;;;;9.03;8.60;;;26.80;10.90;;;;;;4993847;28;20417;-59
2023/06/10 12:29:14;;;;;;;9.83;9.17;;;26.70;10.00;;;;;;4983014;28;20418;-58
2023/06/10 12:32:04;;;;;;;9.60;8.97;;;26.70;10.40;;;;;;4991064;28;20498;-58